Time;durP1;ratioP1;P1;durP2;ratioP2;P2;SDS_P1;SDS_P2;PMS_P1;PMS_P2;Temp;Humidity;BMP_temperature;BMP_pressure;BME280_temperature;BME280_humidity;BME280_pressure;Samples;Min_cycle;Max_cycle;Signal;HPM_P1;HPM_P2
2021/08/15 00:01:50;;;;;;;;;;;;;;;18.69;100.00;98972.78;5094150;28;19931;-80
2021/08/15 00:04:17;;;;;;;;;;;;;;;18.56;100.00;98975.81;5077008;28;20302;-80
2021/08/15 00:06:44;;;;;;;;;;;;;;;18.19;100.00;98974.38;5076339;28;20003;-80
2021/08/15 00:09:11;;;;;;;;;;;;;;;18.21;100.00;98971.06;5076447;28;19928;-80
2021/08/15 00:11:38;;;;;;;;;;;;;;;18.35;100.00;98967.56;5093625;28;19924;-80
2021/08/15 00:14:05;;;;;;;;;;;;;;;18.53;100.00;98965.47;5094163;28;19924;-80
2021/08/15 00:16:33;;;;;;;;;;;;;;;18.63;100.00;98952.81;5076440;28;19981;-80
2021/08/15 00:19:05;;;;;;;;;;;;;;;18.68;100.00;98951.38;5076154;28;20287;-80
2021/08/15 00:21:33;;;;;;;;;;;;;;;18.81;100.00;98946.28;5094133;28;20110;-80
2021/08/15 00:24:00;;;;;;;;;;;;;;;18.64;100.00;98947.97;5059517;28;19924;-80
2021/08/15 00:26:27;;;;;;;;;;;;;;;18.64;100.00;98945.13;5094477;28;19932;-80
2021/08/15 00:28:54;;;;;;;;;;;;;;;18.68;100.00;98937.25;5094561;28;19924;-80
2021/08/15 00:31:23;;;;;;;;;;;;;;;18.83;100.00;98935.25;5088846;28;19928;-80
2021/08/15 00:33:50;;;;;;;;;;;;;;;18.85;100.00;98930.69;5085509;28;20400;-80
2021/08/15 00:36:17;;;;;;;;;;;;;;;18.84;100.00;98928.34;5093838;28;19924;-80
2021/08/15 00:38:59;;;;;;;;;;;;;;;18.76;100.00;98924.31;5047354;28;20334;-80
2021/08/15 00:41:26;;;;;;;;;;;;;;;18.77;100.00;98920.19;5093830;28;20026;-80
2021/08/15 00:43:54;;;;;;;;;;;;;;;18.24;100.00;98911.53;5075775;28;20379;-80
2021/08/15 00:46:21;;;;;;;;;;;;;;;18.06;100.00;98920.09;5081348;28;20398;-80
2021/08/15 00:48:50;;;;;;;;;;;;;;;17.71;100.00;98910.47;5074888;28;19931;-80
2021/08/15 00:51:17;;;;;;;;;;;;;;;17.78;100.00;98927.88;5093696;28;19928;-80
2021/08/15 00:53:44;;;;;;;;;;;;;;;18.06;100.00;98931.41;5093440;28;19928;-80
2021/08/15 00:56:11;;;;;;;;;;;;;;;18.13;100.00;98930.28;5093651;28;20399;-80
2021/08/15 00:58:38;;;;;;;;;;;;;;;18.35;100.00;98925.13;5109089;28;19930;-80
2021/08/15 01:01:06;;;;;;;;;;;;;;;18.44;100.00;98910.97;5093579;28;19998;-80
2021/08/15 01:03:33;;;;;;;;;;;;;;;18.30;100.00;98914.47;5084697;28;19928;-80
2021/08/15 01:06:04;;;;;;;;;;;;;;;18.45;100.00;98902.00;5092991;28;19973;-80
2021/08/15 01:08:31;;;;;;;;;;;;;;;18.56;100.00;98907.13;5075246;28;20383;-80
2021/08/15 01:11:00;;;;;;;;;;;;;;;18.61;100.00;98904.44;5092923;28;19924;-80
2021/08/15 01:13:27;;;;;;;;;;;;;;;18.64;100.00;98895.00;5055134;28;19928;-80
2021/08/15 01:15:54;;;;;;;;;;;;;;;18.64;100.00;98897.81;5090225;28;19947;-80
2021/08/15 01:18:27;;;;;;;;;;;;;;;18.75;100.00;98883.88;5093123;28;19932;-80
2021/08/15 01:20:59;;;;;;;;;;;;;;;18.57;100.00;98884.00;5073171;28;19973;-80
2021/08/15 01:23:27;;;;;;;;;;;;;;;17.56;100.00;98886.97;5047222;28;19928;-80
2021/08/15 01:25:55;;;;;;;;;;;;;;;18.08;100.00;98889.31;5058118;28;19924;-80
2021/08/15 01:28:22;;;;;;;;;;;;;;;18.33;100.00;98880.38;5075234;28;20057;-80
2021/08/15 01:30:50;;;;;;;;;;;;;;;18.37;100.00;98880.19;5075636;28;20347;-80
2021/08/15 01:33:39;;;;;;;;;;;;;;;18.36;100.00;98870.16;5074635;28;19955;-80
2021/08/15 01:36:07;;;;;;;;;;;;;;;18.13;100.00;98877.31;5075049;28;19934;-80
2021/08/15 01:38:35;;;;;;;;;;;;;;;18.11;100.00;98871.38;5058340;28;19947;-80
2021/08/15 01:41:03;;;;;;;;;;;;;;;17.89;100.00;98871.63;5074831;28;20352;-80
2021/08/15 01:43:34;;;;;;;;;;;;;;;18.09;100.00;98867.44;5074896;28;19925;-80
2021/08/15 01:46:01;;;;;;;;;;;;;;;18.20;100.00;98862.06;5075134;28;20325;-80
2021/08/15 01:48:28;;;;;;;;;;;;;;;18.22;100.00;98863.13;5074630;28;19963;-81
2021/08/15 01:50:56;;;;;;;;;;;;;;;18.41;100.00;98855.38;5092926;28;20383;-80
2021/08/15 01:53:23;;;;;;;;;;;;;;;18.46;100.00;98863.19;5074614;28;19931;-81
2021/08/15 01:55:50;;;;;;;;;;;;;;;18.48;100.00;98849.38;5074760;28;19924;-80
2021/08/15 01:58:17;;;;;;;;;;;;;;;18.53;100.00;98846.63;5074646;28;19925;-80
2021/08/15 02:00:45;;;;;;;;;;;;;;;18.27;100.00;98841.91;5054033;28;19924;-80
2021/08/15 02:03:12;;;;;;;;;;;;;;;18.51;100.00;98837.09;5085847;28;19924;-81
2021/08/15 02:05:40;;;;;;;;;;;;;;;18.34;100.00;98845.19;5092845;28;20015;-80
2021/08/15 02:08:08;;;;;;;;;;;;;;;18.39;100.00;98838.09;5092606;28;19928;-80
2021/08/15 02:10:35;;;;;;;;;;;;;;;18.43;100.00;98831.00;5074196;28;19924;-80
2021/08/15 02:13:03;;;;;;;;;;;;;;;18.25;100.00;98836.72;5054521;28;19935;-80
2021/08/15 02:15:31;;;;;;;;;;;;;;;17.91;100.00;98831.59;5088337;28;19924;-80
2021/08/15 02:18:00;;;;;;;;;;;;;;;17.95;100.00;98829.34;5057813;28;20339;-80
2021/08/15 02:20:29;;;;;;;;;;;;;;;18.23;100.00;98833.63;5055224;28;20054;-80
2021/08/15 02:22:56;;;;;;;;;;;;;;;18.35;100.00;98823.31;5094388;28;20375;-80
2021/08/15 02:25:23;;;;;;;;;;;;;;;18.21;100.00;98824.81;5096368;28;20019;-80
2021/08/15 02:27:50;;;;;;;;;;;;;;;18.31;100.00;98820.66;5062049;28;19934;-81
2021/08/15 02:30:18;;;;;;;;;;;;;;;18.36;100.00;98811.53;5078755;28;19954;-81
2021/08/15 02:32:46;;;;;;;;;;;;;;;18.19;100.00;98801.13;5078367;28;19932;-80
2021/08/15 02:35:14;;;;;;;;;;;;;;;18.41;100.00;98805.25;5078487;28;20453;-81
2021/08/15 02:37:42;;;;;;;;;;;;;;;18.37;100.00;98799.00;5078232;28;19924;-80
2021/08/15 02:40:10;;;;;;;;;;;;;;;18.45;100.00;98793.75;5061700;28;20023;-80
2021/08/15 02:42:38;;;;;;;;;;;;;;;17.98;100.00;98794.47;5096583;28;20287;-81
2021/08/15 02:45:06;;;;;;;;;;;;;;;17.78;100.00;98786.59;5096108;28;20034;-80
2021/08/15 02:47:33;;;;;;;;;;;;;;;18.07;100.00;98788.78;5096269;28;19924;-80
2021/08/15 02:50:00;;;;;;;;;;;;;;;18.29;100.00;98791.31;5078063;28;19934;-80
2021/08/15 02:52:27;;;;;;;;;;;;;;;18.15;100.00;98781.50;5096175;28;19924;-80
2021/08/15 02:54:54;;;;;;;;;;;;;;;17.37;100.00;98780.94;5111545;28;19924;-81
2021/08/15 02:57:22;;;;;;;;;;;;;;;17.80;100.00;98788.94;5096216;28;19977;-81
2021/08/15 02:59:50;;;;;;;;;;;;;;;18.16;100.00;98783.06;5095656;28;19932;-81
2021/08/15 03:02:17;;;;;;;;;;;;;;;18.21;100.00;98778.78;5077494;28;19932;-80
2021/08/15 03:04:45;;;;;;;;;;;;;;;18.11;100.00;98775.25;5111597;28;20295;-81
2021/08/15 03:07:13;;;;;;;;;;;;;;;18.38;100.00;98772.25;5061257;28;19959;-80
2021/08/15 03:09:41;;;;;;;;;;;;;;;18.28;100.00;98767.13;5077636;28;19931;-81
2021/08/15 03:12:09;;;;;;;;;;;;;;;18.40;100.00;98769.75;5061006;28;19928;-80
2021/08/15 03:14:39;;;;;;;;;;;;;;;18.47;100.00;98763.72;5095665;28;19930;-81
2021/08/15 03:17:07;;;;;;;;;;;;;;;18.48;100.00;98759.59;5077851;28;19932;-80
2021/08/15 03:19:35;;;;;;;;;;;;;;;18.14;100.00;98760.16;5095428;28;19924;-80
2021/08/15 03:22:04;;;;;;;;;;;;;;;18.28;100.00;98753.75;5077524;28;19924;-80
2021/08/15 03:24:31;;;;;;;;;;;;;;;18.50;100.00;98757.06;5077782;28;19974;-80
2021/08/15 03:26:58;;;;;;;;;;;;;;;18.67;100.00;98755.38;5077595;28;19924;-80
2021/08/15 03:29:26;;;;;;;;;;;;;;;18.72;100.00;98743.34;5077520;28;19973;-80
2021/08/15 03:31:53;;;;;;;;;;;;;;;18.78;100.00;98744.22;5066511;28;19925;-80
2021/08/15 03:34:20;;;;;;;;;;;;;;;18.94;100.00;98746.59;5091600;28;19935;-80
2021/08/15 03:36:48;;;;;;;;;;;;;;;18.84;100.00;98736.63;5077578;28;19950;-80
2021/08/15 03:39:16;;;;;;;;;;;;;;;18.99;100.00;98734.59;5077238;28;19931;-80
2021/08/15 03:41:43;;;;;;;;;;;;;;;18.84;100.00;98735.88;5095080;28;19924;-80
2021/08/15 03:44:10;;;;;;;;;;;;;;;18.85;100.00;98731.75;5093710;28;19932;-80
2021/08/15 03:46:40;;;;;;;;;;;;;;;18.57;100.00;98722.75;5094984;28;20008;-80
2021/08/15 03:49:07;;;;;;;;;;;;;;;18.68;100.00;98722.97;5095170;28;19928;-80
2021/08/15 03:51:34;;;;;;;;;;;;;;;18.77;100.00;98724.91;5072026;28;20053;-81
2021/08/15 03:54:01;;;;;;;;;;;;;;;18.81;100.00;98714.97;5085818;28;20469;-80
2021/08/15 03:56:29;;;;;;;;;;;;;;;18.90;100.00;98717.69;5076711;28;19925;-80
2021/08/15 03:58:59;;;;;;;;;;;;;;;18.72;100.00;98712.22;5094799;28;19923;-80
2021/08/15 04:01:26;;;;;;;;;;;;;;;18.81;100.00;98703.63;5076465;28;19924;-80
2021/08/15 04:03:53;;;;;;;;;;;;;;;18.89;100.00;98713.31;5094576;28;19924;-80
2021/08/15 04:06:21;;;;;;;;;;;;;;;18.65;100.00;98706.16;5045690;28;20022;-80
2021/08/15 04:08:50;;;;;;;;;;;;;;;18.71;100.00;98704.22;5094172;28;19925;-80
2021/08/15 04:11:18;;;;;;;;;;;;;;;18.87;100.00;98715.84;5059968;28;19924;-80
2021/08/15 04:13:45;;;;;;;;;;;;;;;18.99;100.00;98709.09;5094546;28;20027;-80
2021/08/15 04:16:12;;;;;;;;;;;;;;;19.08;100.00;98711.06;5076445;28;19982;-80
2021/08/15 04:18:40;;;;;;;;;;;;;;;19.12;100.00;98705.97;5109967;28;19924;-80
2021/08/15 04:21:08;;;;;;;;;;;;;;;19.14;100.00;98695.75;5076047;28;19924;-80
2021/08/15 04:23:35;;;;;;;;;;;;;;;19.11;100.00;98702.38;5094259;28;19928;-80
2021/08/15 04:26:03;;;;;;;;;;;;;;;19.20;100.00;98690.94;5076232;28;20019;-80
2021/08/15 04:28:31;;;;;;;;;;;;;;;19.02;100.00;98705.28;5075950;28;19932;-80
2021/08/15 04:30:58;;;;;;;;;;;;;;;19.16;100.00;98700.91;5093758;28;19924;-80
2021/08/15 04:33:27;;;;;;;;;;;;;;;19.10;100.00;98703.63;5093968;28;20408;-80
2021/08/15 04:35:54;;;;;;;;;;;;;;;19.00;100.00;98699.34;5093808;28;20016;-80
2021/08/15 04:38:22;;;;;;;;;;;;;;;19.22;100.00;98694.06;5076130;28;19947;-80
2021/08/15 04:40:50;;;;;;;;;;;;;;;19.16;100.00;98701.66;5075420;28;19925;-80
2021/08/15 04:43:18;;;;;;;;;;;;;;;19.15;100.00;98705.78;5093822;28;19963;-80
2021/08/15 04:45:46;;;;;;;;;;;;;;;18.79;100.00;98694.88;5075253;28;20070;-80
2021/08/15 04:48:14;;;;;;;;;;;;;;;18.89;100.00;98698.38;5093890;28;19924;-80
2021/08/15 04:50:41;;;;;;;;;;;;;;;18.85;100.00;98697.78;5092229;28;20371;-80
2021/08/15 04:53:09;;;;;;;;;;;;;;;18.94;100.00;98697.69;5093612;28;19928;-80
2021/08/15 04:55:36;;;;;;;;;;;;;;;18.91;100.00;98696.63;5075319;28;19924;-80
2021/08/15 04:58:04;;;;;;;;;;;;;;;18.94;100.00;98692.81;5091372;28;19947;-80
2021/08/15 05:00:31;;;;;;;;;;;;;;;18.67;100.00;98692.31;5055609;28;20268;-80
2021/08/15 05:02:58;;;;;;;;;;;;;;;18.93;100.00;98691.25;5049106;28;19928;-80
2021/08/15 05:05:26;;;;;;;;;;;;;;;18.98;100.00;98690.56;5093422;28;20394;-80
2021/08/15 05:07:53;;;;;;;;;;;;;;;18.86;100.00;98688.81;5105109;28;20290;-80
2021/08/15 05:10:21;;;;;;;;;;;;;;;18.91;100.00;98685.31;5074882;28;20448;-80
2021/08/15 05:12:48;;;;;;;;;;;;;;;19.12;100.00;98678.44;5058681;28;20033;-80
2021/08/15 05:15:16;;;;;;;;;;;;;;;19.06;100.00;98686.06;5093512;28;20406;-80
2021/08/15 05:17:43;;;;;;;;;;;;;;;19.02;100.00;98679.81;5108960;28;20291;-80
2021/08/15 05:20:11;;;;;;;;;;;;;;;19.02;100.00;98679.81;5074999;28;19928;-80
2021/08/15 05:22:38;;;;;;;;;;;;;;;19.03;100.00;98672.91;5058685;28;19924;-80
2021/08/15 05:25:05;;;;;;;;;;;;;;;19.13;100.00;98671.50;5058204;28;19930;-80
2021/08/15 05:27:33;;;;;;;;;;;;;;;19.08;100.00;98666.56;5075212;28;19954;-80
2021/08/15 05:30:00;;;;;;;;;;;;;;;19.05;100.00;98667.50;5074989;28;20337;-80
2021/08/15 05:32:28;;;;;;;;;;;;;;;18.92;100.00;98678.38;5056376;28;20302;-80
2021/08/15 05:34:55;;;;;;;;;;;;;;;19.05;100.00;98678.84;5093063;28;19977;-80
2021/08/15 05:37:23;;;;;;;;;;;;;;;19.30;100.00;98686.75;5058606;28;19924;-80
2021/08/15 05:39:50;;;;;;;;;;;;;;;19.20;100.00;98676.00;5040601;28;19997;-80
2021/08/15 05:42:17;;;;;;;;;;;;;;;19.21;100.00;98678.34;5066969;28;20455;-80
2021/08/15 05:44:44;;;;;;;;;;;;;;;19.40;100.00;98685.34;5074846;28;20016;-80
2021/08/15 05:47:11;;;;;;;;;;;;;;;19.32;100.00;98689.88;5054563;28;20054;-80
2021/08/15 05:49:38;;;;;;;;;;;;;;;19.22;100.00;98682.72;5071468;28;20475;-80
2021/08/15 05:52:05;;;;;;;;;;;;;;;19.06;100.00;98691.72;5055042;28;20430;-80
2021/08/15 05:54:32;;;;;;;;;;;;;;;18.99;100.00;98691.34;5087265;28;20337;-80
2021/08/15 05:56:59;;;;;;;;;;;;;;;19.17;100.00;98686.25;5074632;28;20375;-80
2021/08/15 05:59:28;;;;;;;;;;;;;;;19.18;100.00;98681.38;5092729;28;19924;-80
2021/08/15 06:01:55;;;;;;;;;;;;;;;19.36;100.00;98687.63;5092327;28;19965;-80
2021/08/15 06:04:22;;;;;;;;;;;;;;;19.31;100.00;98687.53;5074589;28;19924;-80
2021/08/15 06:06:50;;;;;;;;;;;;;;;18.96;100.00;98687.44;5092496;28;20394;-80
2021/08/15 06:09:17;;;;;;;;;;;;;;;18.99;100.00;98688.53;5082233;28;19998;-80
2021/08/15 06:11:46;;;;;;;;;;;;;;;19.20;100.00;98685.28;5088878;28;19924;-80
2021/08/15 06:14:14;;;;;;;;;;;;;;;19.21;100.00;98686.84;5074827;28;19924;-80
2021/08/15 06:16:41;;;;;;;;;;;;;;;19.00;100.00;98690.88;5057845;28;19951;-80
2021/08/15 06:19:08;;;;;;;;;;;;;;;18.90;100.00;98686.56;5108221;28;19924;-80
2021/08/15 06:21:35;;;;;;;;;;;;;;;18.96;100.00;98693.09;5057865;28;19986;-80
2021/08/15 06:24:04;;;;;;;;;;;;;;;18.83;100.00;98689.78;5092156;28;19924;-80
2021/08/15 06:26:31;;;;;;;;;;;;;;;18.89;100.00;98698.38;5092583;28;19930;-80
2021/08/15 06:28:58;;;;;;;;;;;;;;;18.97;100.00;98696.72;5074146;28;19924;-80
2021/08/15 06:31:26;;;;;;;;;;;;;;;18.96;100.00;98698.75;5057791;28;20340;-80
2021/08/15 06:33:53;;;;;;;;;;;;;;;19.08;100.00;98694.88;5092156;28;19963;-80
2021/08/15 06:36:20;;;;;;;;;;;;;;;19.35;100.00;98697.41;5074625;28;19924;-80
2021/08/15 06:38:47;;;;;;;;;;;;;;;19.35;100.00;98688.91;5090836;28;19924;-80
2021/08/15 06:41:15;;;;;;;;;;;;;;;19.05;100.00;98690.16;5078432;28;19924;-80
2021/08/15 06:43:42;;;;;;;;;;;;;;;18.93;100.00;98699.72;5078364;28;19932;-80
2021/08/15 06:46:09;;;;;;;;;;;;;;;18.73;100.00;98684.72;5090759;28;20403;-80
2021/08/15 06:48:38;;;;;;;;;;;;;;;18.85;100.00;98698.59;5074223;28;20268;-80
2021/08/15 06:51:08;;;;;;;;;;;;;;;19.09;100.00;98689.97;5092044;28;19930;-80
2021/08/15 06:53:36;;;;;;;;;;;;;;;19.41;100.00;98695.44;5064049;28;20021;-80
2021/08/15 06:56:05;;;;;;;;;;;;;;;19.72;100.00;98685.56;5088309;28;19924;-80
2021/08/15 06:58:33;;;;;;;;;;;;;;;19.47;100.00;98687.78;5074384;28;19966;-80
2021/08/15 07:01:00;;;;;;;;;;;;;;;19.59;100.00;98695.19;5091991;28;19935;-80
2021/08/15 07:03:27;;;;;;;;;;;;;;;19.50;100.00;98681.13;5091943;28;20382;-80
2021/08/15 07:05:54;;;;;;;;;;;;;;;19.37;100.00;98694.06;5092187;28;20023;-80
2021/08/15 07:08:21;;;;;;;;;;;;;;;19.53;100.00;98688.66;5057922;28;19924;-80
2021/08/15 07:10:49;;;;;;;;;;;;;;;19.80;100.00;98678.19;5077783;28;19973;-80
2021/08/15 07:13:19;;;;;;;;;;;;;;;20.05;100.00;98681.13;5095913;28;19935;-80
2021/08/15 07:15:47;;;;;;;;;;;;;;;19.39;100.00;98680.97;5056008;28;19924;-80
2021/08/15 07:18:14;;;;;;;;;;;;;;;19.73;100.00;98679.41;5075654;28;19931;-80
2021/08/15 07:20:41;;;;;;;;;;;;;;;19.51;100.00;98694.03;5076393;28;19990;-79
2021/08/15 07:23:08;;;;;;;;;;;;;;;19.57;100.00;98683.56;5111077;28;20019;-80
2021/08/15 07:25:35;;;;;;;;;;;;;;;19.56;100.00;98682.00;5076613;28;19928;-79
2021/08/15 07:28:04;;;;;;;;;;;;;;;19.65;100.00;98687.53;5067247;28;20427;-80
2021/08/15 07:30:33;;;;;;;;;;;;;;;19.73;100.00;98671.66;5075692;28;20425;-80
2021/08/15 07:33:01;;;;;;;;;;;;;;;19.60;100.00;98678.94;5077430;28;19924;-79
2021/08/15 07:35:30;;;;;;;;;;;;;;;19.72;100.00;98680.66;5076924;28;19924;-80
2021/08/15 07:37:57;;;;;;;;;;;;;;;20.05;100.00;98683.97;5095229;28;20018;-79
2021/08/15 07:40:25;;;;;;;;;;;;;;;20.05;100.00;98674.66;5076961;28;19924;-80
2021/08/15 07:42:54;;;;;;;;;;;;;;;19.20;100.00;98681.66;5060286;28;20383;-80
2021/08/15 07:45:23;;;;;;;;;;;;;;;18.66;100.00;98685.88;5094950;28;19924;-80
2021/08/15 07:47:50;;;;;;;;;;;;;;;18.81;100.00;98688.72;5076870;28;20512;-79
2021/08/15 07:50:20;;;;;;;;;;;;;;;18.85;100.00;98677.97;5059944;28;19947;-79
2021/08/15 07:52:47;;;;;;;;;;;;;;;19.00;100.00;98676.72;5060338;28;19956;-80
2021/08/15 07:55:14;;;;;;;;;;;;;;;18.67;100.00;98676.13;5095208;28;20184;-80
2021/08/15 07:57:42;;;;;;;;;;;;;;;18.57;100.00;98677.47;5093338;28;19978;-79
2021/08/15 08:00:10;;;;;;;;;;;;;;;18.29;100.00;98673.31;5076724;28;19924;-79
2021/08/15 08:02:37;;;;;;;;;;;;;;;18.10;100.00;98677.56;5076965;28;19959;-79
2021/08/15 08:05:04;;;;;;;;;;;;;;;18.31;100.00;98675.66;5056469;28;19925;-79
2021/08/15 08:07:32;;;;;;;;;;;;;;;18.15;100.00;98674.06;5073575;28;19929;-79
2021/08/15 08:09:58;;;;;;;;;;;;;;;18.16;100.00;98672.78;5075504;28;19924;-79
2021/08/15 08:12:27;;;;;;;;;;;;;;;18.25;100.00;98671.94;5076620;28;19924;-79
2021/08/15 08:14:54;;;;;;;;;;;;;;;18.51;100.00;98668.09;5076664;28;20402;-80
2021/08/15 08:17:22;;;;;;;;;;;;;;;19.07;100.00;98670.63;5110029;28;19943;-80
2021/08/15 08:19:49;;;;;;;;;;;;;;;19.21;100.00;98664.19;5076436;28;19931;-80
2021/08/15 08:22:16;;;;;;;;;;;;;;;19.30;100.00;98672.59;5094306;28;20066;-80
2021/08/15 08:24:43;;;;;;;;;;;;;;;18.73;100.00;98662.88;5076135;28;19930;-80
2021/08/15 08:27:10;;;;;;;;;;;;;;;18.65;100.00;98656.03;5110037;28;20387;-80
2021/08/15 08:29:37;;;;;;;;;;;;;;;18.64;100.00;98643.16;5094471;28;19925;-80
2021/08/15 08:32:04;;;;;;;;;;;;;;;18.24;100.00;98630.78;5094075;28;19932;-80
2021/08/15 08:34:32;;;;;;;;;;;;;;;18.37;100.00;98637.78;5076153;28;19931;-79
2021/08/15 08:36:59;;;;;;;;;;;;;;;18.29;100.00;98649.91;5076052;28;19928;-80
2021/08/15 08:39:29;;;;;;;;;;;;;;;18.37;100.00;98649.09;5075856;28;19928;-80
2021/08/15 08:42:00;;;;;;;;;;;;;;;17.69;100.00;98648.19;5076026;28;19928;-80
2021/08/15 08:44:33;;;;;;;;;;;;;;;17.92;100.00;98660.72;5059359;28;19931;-80
2021/08/15 08:47:01;;;;;;;;;;;;;;;18.08;100.00;98656.69;5059394;28;19950;-79
2021/08/15 08:49:28;;;;;;;;;;;;;;;18.26;100.00;98660.16;5075767;28;19993;-80
2021/08/15 08:51:56;;;;;;;;;;;;;;;18.22;100.00;98645.41;5076015;28;20344;-80
2021/08/15 08:54:25;;;;;;;;;;;;;;;18.44;100.00;98650.72;5075533;28;20192;-80
2021/08/15 08:56:53;;;;;;;;;;;;;;;18.96;100.00;98642.13;5093622;28;20421;-79
2021/08/15 08:59:20;;;;;;;;;;;;;;;19.25;100.00;98641.31;5055693;28;20283;-79
2021/08/15 09:01:47;;;;;;;;;;;;;;;19.28;100.00;98629.03;5073491;28;20395;-79
2021/08/15 09:04:15;;;;;;;;;;;;;;;19.61;100.00;98630.28;5085788;28;19970;-79
2021/08/15 09:06:42;;;;;;;;;;;;;;;19.75;100.00;98620.16;5092229;28;19940;-80
2021/08/15 09:09:14;;;;;;;;;;;;;;;19.72;100.00;98606.97;5075280;28;20011;-79
2021/08/15 09:11:45;;;;;;;;;;;;;;;20.00;100.00;98598.81;5058769;28;19923;-80
2021/08/15 09:14:26;;;;;;;;;;;;;;;20.38;100.00;98589.97;5075966;28;20272;-80
2021/08/15 09:16:57;;;;;;;;;;;;;;;20.09;100.00;98587.31;5093117;28;20383;-80
2021/08/15 09:19:27;;;;;;;;;;;;;;;20.02;100.00;98593.41;5092038;28;20414;-79
2021/08/15 09:21:57;;;;;;;;;;;;;;;19.78;100.00;98587.97;5058601;28;20373;-79
2021/08/15 09:24:24;;;;;;;;;;;;;;;19.67;100.00;98571.59;5093013;28;20010;-79
2021/08/15 09:27:08;;;;;;;;;;;;;;;20.33;100.00;98580.13;5089663;28;20307;-79
2021/08/15 09:29:35;;;;;;;;;;;;;;;20.46;100.00;98571.22;5074808;28;20381;-79
2021/08/15 09:32:02;;;;;;;;;;;;;;;20.99;100.00;98565.75;5074187;28;19928;-80
2021/08/15 09:34:29;;;;;;;;;;;;;;;21.05;100.00;98566.56;5093045;28;19924;-80
2021/08/15 09:36:56;;;;;;;;;;;;;;;20.88;100.00;98571.31;5091664;28;20409;-80
2021/08/15 09:39:34;;;;;;;;;;;;;;;20.53;100.00;98567.91;5074537;28;20280;-79
2021/08/15 09:42:01;;;;;;;;;;;;;;;20.40;100.00;98570.38;5062034;28;19939;-79
2021/08/15 09:44:29;;;;;;;;;;;;;;;19.92;100.00;98569.34;5091070;28;19924;-79
2021/08/15 09:47:01;;;;;;;;;;;;;;;19.46;100.00;98566.47;5057510;28;19928;-79
2021/08/15 09:49:32;;;;;;;;;;;;;;;19.47;100.00;98560.31;5074562;28;19985;-79
2021/08/15 09:52:00;;;;;;;;;;;;;;;19.58;100.00;98559.66;5074679;28;19925;-80
2021/08/15 09:54:28;;;;;;;;;;;;;;;20.04;100.00;98554.78;5074591;28;19924;-80
2021/08/15 09:56:57;;;;;;;;;;;;;;;20.45;100.00;98556.25;5094827;28;19924;-80
2021/08/15 09:59:25;;;;;;;;;;;;;;;21.10;100.00;98565.81;5057900;28;19924;-80
2021/08/15 10:01:53;;;;;;;;;;;;;;;21.28;100.00;98554.06;5057783;28;19924;-79
2021/08/15 10:04:21;;;;;;;;;;;;;;;21.48;100.00;98553.13;5074448;28;19924;-80
2021/08/15 10:06:50;;;;;;;;;;;;;;;21.56;100.00;98543.59;5074521;28;20030;-80
2021/08/15 10:09:19;;;;;;;;;;;;;;;21.52;100.00;98545.13;5092229;28;20394;-80
2021/08/15 10:11:46;;;;;;;;;;;;;;;21.79;100.00;98553.81;5074364;28;19924;-79
2021/08/15 10:14:15;;;;;;;;;;;;;;;21.79;100.00;98536.75;5091976;28;20333;-80
2021/08/15 10:16:50;;;;;;;;;;;;;;;21.82;100.00;98554.84;5073958;28;19959;-80
2021/08/15 10:19:26;;;;;;;;;;;;;;;21.29;100.00;98538.56;5092529;28;20307;-80
2021/08/15 10:21:57;;;;;;;;;;;;;;;20.95;100.00;98548.16;5074524;28;20398;-79
2021/08/15 10:24:38;;;;;;;;;;;;;;;21.14;100.00;98555.00;5083390;28;19924;-79
2021/08/15 10:27:06;;;;;;;;;;;;;;;20.69;100.00;98550.28;5068445;28;20399;-80
2021/08/15 10:29:33;;;;;;;;;;;;;;;20.66;100.00;98559.78;5090849;28;20442;-79
2021/08/15 10:32:11;;;;;;;;;;;;;;;20.69;100.00;98558.78;5074154;28;19974;-79
2021/08/15 10:34:49;;;;;;;;;;;;;;;20.54;100.00;98553.22;5092306;28;19932;-79
2021/08/15 10:37:23;;;;;;;;;;;;;;;20.80;100.00;98547.50;5055244;28;19925;-79
2021/08/15 10:39:51;;;;;;;;;;;;;;;20.83;100.00;98552.16;5091995;28;20334;-79
2021/08/15 10:42:36;;;;;;;;;;;;;;;20.83;100.00;98547.28;5073699;28;19928;-80
2021/08/15 10:45:05;;;;;;;;;;;;;;;21.04;100.00;98559.31;5077772;28;19924;-80
2021/08/15 10:47:33;;;;;;;;;;;;;;;20.75;100.00;98551.09;5095897;28;19928;-79
2021/08/15 10:50:04;;;;;;;;;;;;;;;21.05;100.00;98555.97;5094664;28;19997;-80
2021/08/15 10:52:42;;;;;;;;;;;;;;;20.71;100.00;98550.53;5095825;28;19925;-79
2021/08/15 10:55:17;;;;;;;;;;;;;;;20.48;100.00;98543.09;5077819;28;19949;-80
2021/08/15 10:57:48;;;;;;;;;;;;;;;19.96;100.00;98553.66;5095325;28;19924;-79
2021/08/15 11:00:34;;;;;;;;;;;;;;;19.77;100.00;98557.28;5095380;28;19924;-80
2021/08/15 11:03:10;;;;;;;;;;;;;;;20.14;100.00;98549.75;5077964;28;19924;-80
2021/08/15 11:05:38;;;;;;;;;;;;;;;20.57;100.00;98557.13;5084739;28;19973;-79
2021/08/15 11:08:25;;;;;;;;;;;;;;;20.80;100.00;98553.97;5074577;28;19931;-79
2021/08/15 11:11:09;;;;;;;;;;;;;;;21.04;100.00;98545.91;5076628;28;19925;-79
2021/08/15 11:13:37;;;;;;;;;;;;;;;21.38;100.00;98546.88;5077251;28;19925;-80
2021/08/15 11:16:22;;;;;;;;;;;;;;;21.16;100.00;98541.06;5049212;28;20394;-79
2021/08/15 11:19:08;;;;;;;;;;;;;;;21.18;100.00;98527.13;5095108;28;19924;-80
2021/08/15 11:22:11;;;;;;;;;;;;;;;21.08;100.00;98528.63;5060548;28;19931;-79
2021/08/15 11:24:43;;;;;;;;;;;;;;;21.01;100.00;98523.41;5016033;28;19925;-79
2021/08/15 11:27:11;;;;;;;;;;;;;;;21.19;100.00;98523.00;5029217;28;19925;-79
2021/08/15 11:29:38;;;;;;;;;;;;;;;21.51;100.00;98526.53;5033041;28;20352;-79
2021/08/15 11:32:10;;;;;;;;;;;;;;;20.90;100.00;98529.00;5013032;28;19925;-79
2021/08/15 11:34:37;;;;;;;;;;;;;;;20.44;100.00;98536.88;5013085;28;19946;-80
2021/08/15 11:37:06;;;;;;;;;;;;;;;20.85;100.00;98526.91;5012863;28;19956;-79
2021/08/15 11:39:34;;;;;;;;;;;;;;;20.53;100.00;98522.50;5016572;28;20313;-79
2021/08/15 11:42:03;;;;;;;;;;;;;;;20.79;100.00;98534.59;5025304;28;20021;-79
2021/08/15 11:44:46;;;;;;;;;;;;;;;20.26;100.00;98532.34;5030376;28;20285;-79
2021/08/15 11:47:15;;;;;;;;;;;;;;;20.11;100.00;98528.81;5016130;28;20392;-79
2021/08/15 11:49:42;;;;;;;;;;;;;;;20.15;100.00;98528.63;5032323;28;19925;-79
2021/08/15 11:52:13;;;;;;;;;;;;;;;20.19;100.00;98529.19;5032277;28;20347;-79
2021/08/15 11:54:43;;;;;;;;;;;;;;;20.56;100.00;98527.97;4999161;28;19925;-80
2021/08/15 11:57:14;;;;;;;;;;;;;;;20.93;100.00;98528.00;5032353;28;19948;-80
2021/08/15 11:59:42;;;;;;;;;;;;;;;21.13;100.00;98513.66;5073297;28;19950;-79
2021/08/15 12:02:14;;;;;;;;;;;;;;;21.52;100.00;98517.50;5056261;28;19964;-79
2021/08/15 12:04:42;;;;;;;;;;;;;;;21.38;100.00;98519.25;5069685;28;20289;-79
2021/08/15 12:07:09;;;;;;;;;;;;;;;21.51;100.00;98507.41;5054217;28;20300;-79
2021/08/15 12:09:36;;;;;;;;;;;;;;;21.42;100.00;98507.63;5053164;28;20039;-80
2021/08/15 12:12:05;;;;;;;;;;;;;;;21.46;100.00;98508.19;5052930;28;19966;-80
2021/08/15 12:14:37;;;;;;;;;;;;;;;22.02;100.00;98507.09;5054353;28;19990;-80
2021/08/15 12:17:04;;;;;;;;;;;;;;;22.27;100.00;98508.94;5052835;28;19970;-80
2021/08/15 12:19:32;;;;;;;;;;;;;;;22.24;100.00;98507.13;5044797;28;20012;-80
2021/08/15 12:22:00;;;;;;;;;;;;;;;21.81;100.00;98499.28;5050073;28;19924;-80
2021/08/15 12:24:29;;;;;;;;;;;;;;;20.99;100.00;98508.97;5054455;28;19975;-79
2021/08/15 12:27:02;;;;;;;;;;;;;;;20.97;100.00;98515.16;5037841;28;20327;-79
2021/08/15 12:29:35;;;;;;;;;;;;;;;20.83;100.00;98515.25;5041614;28;19971;-79
2021/08/15 12:32:29;;;;;;;;;;;;;;;20.71;100.00;98514.41;5054136;28;19935;-79
2021/08/15 12:34:57;;;;;;;;;;;;;;;20.79;100.00;98512.66;5054134;28;19947;-79
2021/08/15 12:37:26;;;;;;;;;;;;;;;20.71;100.00;98508.72;5052662;28;20006;-79
2021/08/15 12:40:03;;;;;;;;;;;;;;;20.85;100.00;98519.16;5052359;28;19924;-79
2021/08/15 12:42:32;;;;;;;;;;;;;;;20.69;100.00;98513.38;5052651;28;19931;-79
2021/08/15 12:45:02;;;;;;;;;;;;;;;20.33;100.00;98533.94;5085518;28;20007;-79